createdAt,value
2022-11-15T00:00:12.205Z,9.32
2022-11-15T00:00:54.304Z,9.25
2022-11-15T00:01:37.976Z,8.30
2022-11-15T00:02:19.776Z,8.70
2022-11-15T00:03:01.468Z,9.02
2022-11-15T00:03:43.154Z,9.30
2022-11-15T00:04:24.787Z,9.55
2022-11-15T00:05:06.650Z,8.90
2022-11-15T00:05:48.678Z,9.23
2022-11-15T00:06:30.411Z,9.35
2022-11-15T00:07:17.897Z,8.73
2022-11-15T00:08:09.363Z,9.10
2022-11-15T00:08:51.031Z,9.45
2022-11-15T00:09:32.684Z,9.10
2022-11-15T00:10:14.387Z,9.57
2022-11-15T00:10:57.637Z,9.10
2022-11-15T00:11:39.275Z,8.63
2022-11-15T00:12:20.889Z,9.40
2022-11-15T00:13:07.305Z,9.40
2022-11-15T00:13:49.010Z,8.77
2022-11-15T00:14:30.706Z,9.95
2022-11-15T00:15:12.337Z,9.43
2022-11-15T00:15:57.331Z,9.38
2022-11-15T00:16:38.972Z,9.38
2022-11-15T00:17:20.709Z,9.53
2022-11-15T00:18:02.420Z,9.25
2022-11-15T00:18:49.306Z,8.88
2022-11-15T00:19:32.419Z,9.57
2022-11-15T00:20:14.126Z,9.77
2022-11-15T00:20:57.184Z,9.10
2022-11-15T00:21:38.929Z,8.55
2022-11-15T00:22:20.712Z,8.75
2022-11-15T00:23:05.195Z,8.85
2022-11-15T00:23:46.930Z,8.52
2022-11-15T00:24:28.646Z,9.20
2022-11-15T00:25:10.333Z,9.40
2022-11-15T00:25:59.436Z,9.00
2022-11-15T00:26:41.075Z,8.93
2022-11-15T00:27:22.705Z,8.70
2022-11-15T00:28:04.700Z,8.93
2022-11-15T00:28:46.453Z,9.40
2022-11-15T00:29:28.107Z,9.68
2022-11-15T00:30:10.226Z,9.30
2022-11-15T00:30:52.021Z,9.50
2022-11-15T00:31:33.659Z,9.00
2022-11-15T00:32:15.328Z,9.40
2022-11-15T00:32:56.975Z,8.73
2022-11-15T00:33:38.602Z,9.80
2022-11-15T00:34:20.225Z,9.30
2022-11-15T00:35:01.916Z,9.18
2022-11-15T00:35:43.575Z,10.02
2022-11-15T00:36:25.245Z,11.75
2022-11-15T00:37:07.390Z,10.30
2022-11-15T00:37:49.259Z,9.80
2022-11-15T00:38:38.592Z,9.98
2022-11-15T00:39:20.252Z,9.13
2022-11-15T00:40:02.415Z,9.48
2022-11-15T00:40:44.114Z,9.32
2022-11-15T00:41:25.799Z,9.07
2022-11-15T00:42:07.480Z,9.02
2022-11-15T00:42:49.165Z,9.45
2022-11-15T00:43:31.670Z,9.80
2022-11-15T00:44:13.571Z,9.45
2022-11-15T00:44:55.192Z,9.18
2022-11-15T00:45:36.900Z,9.50
2022-11-15T00:46:18.599Z,9.75
2022-11-15T00:47:00.501Z,9.60
2022-11-15T00:47:44.716Z,9.20
2022-11-15T00:48:26.369Z,9.20
2022-11-15T00:49:07.992Z,9.40
2022-11-15T00:49:49.609Z,8.95
2022-11-15T00:50:31.240Z,9.73
2022-11-15T00:51:12.878Z,9.32
2022-11-15T00:51:54.509Z,9.10
2022-11-15T00:52:36.157Z,9.40
2022-11-15T00:53:18.338Z,9.17
2022-11-15T00:54:02.227Z,9.20
2022-11-15T00:54:43.885Z,9.52
2022-11-15T00:55:25.526Z,9.20
2022-11-15T00:56:07.421Z,9.23
2022-11-15T00:56:49.057Z,9.80
2022-11-15T00:57:30.769Z,9.00
2022-11-15T00:58:12.430Z,8.40
2022-11-15T00:58:54.312Z,8.90
2022-11-15T00:59:36.178Z,9.10
2022-11-15T01:00:18.057Z,9.10
2022-11-15T01:01:14.208Z,9.15
2022-11-15T01:01:55.928Z,9.38
2022-11-15T01:02:37.590Z,8.68
2022-11-15T01:03:19.381Z,8.80
2022-11-15T01:04:01.698Z,8.68
2022-11-15T01:04:43.454Z,8.90
2022-11-15T01:05:25.095Z,8.90
2022-11-15T01:06:08.071Z,10.00
2022-11-15T01:06:49.763Z,9.23
2022-11-15T01:07:31.498Z,8.65
2022-11-15T01:08:18.129Z,8.60
2022-11-15T01:08:59.782Z,9.20
2022-11-15T01:09:41.431Z,8.60
2022-11-15T01:10:24.334Z,8.57
2022-11-15T01:11:09.397Z,9.38
2022-11-15T01:11:51.043Z,8.50
2022-11-15T01:12:33.175Z,7.90
2022-11-15T01:13:14.795Z,8.07
2022-11-15T01:13:56.853Z,8.82
2022-11-15T01:14:38.495Z,8.88
2022-11-15T01:15:20.174Z,8.82
2022-11-15T01:16:18.001Z,8.90
2022-11-15T01:16:59.641Z,8.70
2022-11-15T01:17:41.401Z,8.85
2022-11-15T01:18:23.044Z,9.30
2022-11-15T01:19:05.002Z,9.20
2022-11-15T01:19:46.658Z,8.57
2022-11-15T01:20:28.287Z,9.00
2022-11-15T01:21:14.320Z,9.32
2022-11-15T01:21:55.973Z,8.52
2022-11-15T01:22:37.600Z,8.38
2022-11-15T01:23:19.268Z,9.10
2022-11-15T01:24:00.971Z,9.48
2022-11-15T01:24:42.637Z,9.38
2022-11-15T01:25:24.347Z,9.35
2022-11-15T01:26:08.389Z,9.80
2022-11-15T01:26:50.040Z,9.07
2022-11-15T01:27:31.702Z,8.63
2022-11-15T01:28:13.402Z,9.50
2022-11-15T01:28:55.136Z,9.60
2022-11-15T01:29:36.808Z,9.70
2022-11-15T01:30:18.532Z,8.68
2022-11-15T01:31:04.922Z,8.98
2022-11-15T01:31:46.582Z,9.43
2022-11-15T01:32:28.208Z,9.50
2022-11-15T01:33:09.874Z,9.25
2022-11-15T01:33:51.539Z,9.18
2022-11-15T01:34:33.202Z,9.38
2022-11-15T01:35:14.960Z,9.98
2022-11-15T01:35:56.980Z,9.25
2022-11-15T01:36:38.597Z,9.38
2022-11-15T01:37:20.244Z,9.18
2022-11-15T01:38:01.910Z,9.65
2022-11-15T01:38:43.852Z,8.48
2022-11-15T01:39:25.790Z,9.45
2022-11-15T01:40:07.870Z,9.23
2022-11-15T01:40:50.095Z,9.73
2022-11-15T01:41:33.764Z,9.65
2022-11-15T01:42:15.756Z,9.18
2022-11-15T01:42:57.381Z,8.50
2022-11-15T01:43:40.979Z,8.15
2022-11-15T01:44:34.677Z,9.60
2022-11-15T01:45:17.172Z,9.57
2022-11-15T01:46:10.107Z,9.10
2022-11-15T01:46:51.742Z,9.13
2022-11-15T01:47:38.251Z,9.07
2022-11-15T01:48:20.305Z,9.35
2022-11-15T01:49:06.374Z,8.93
2022-11-15T01:49:53.400Z,9.77
2022-11-15T01:50:35.120Z,8.75
2022-11-15T01:51:19.847Z,8.95
2022-11-15T01:52:04.853Z,10.20
2022-11-15T01:52:46.917Z,9.85
2022-11-15T01:53:30.377Z,9.50
2022-11-15T01:54:16.748Z,9.00
2022-11-15T01:55:07.507Z,8.88
2022-11-15T01:55:49.194Z,9.32
2022-11-15T01:56:36.965Z,9.90
2022-11-15T01:57:18.876Z,9.07
2022-11-15T01:58:04.209Z,9.48
2022-11-15T01:58:47.005Z,9.05
2022-11-15T01:59:29.430Z,8.40
2022-11-15T02:00:12.073Z,8.88
2022-11-15T02:00:54.025Z,8.70
2022-11-15T02:01:36.109Z,9.10
2022-11-15T02:02:17.810Z,9.25
2022-11-15T02:02:59.454Z,9.05
2022-11-15T02:04:01.078Z,8.50
2022-11-15T02:04:45.746Z,9.40
2022-11-15T02:05:27.892Z,9.43
2022-11-15T02:06:10.018Z,8.50
2022-11-15T02:06:51.754Z,8.23
2022-11-15T02:07:35.985Z,8.73
2022-11-15T02:08:20.937Z,8.30
2022-11-15T02:09:03.317Z,8.50
2022-11-15T02:09:45.725Z,8.80
2022-11-15T02:10:28.834Z,9.10
2022-11-15T02:11:10.672Z,8.82
2022-11-15T02:11:55.301Z,9.15
2022-11-15T02:12:37.428Z,9.20
2022-11-15T02:13:19.221Z,9.45
2022-11-15T02:14:03.334Z,8.80
2022-11-15T02:14:49.326Z,9.00
2022-11-15T02:15:41.597Z,10.00
2022-11-15T02:16:56.844Z,8.80
2022-11-15T02:17:53.488Z,8.88
2022-11-15T02:18:49.786Z,7.85
2022-11-15T02:19:42.071Z,8.18
2022-11-15T02:20:30.665Z,9.63
2022-11-15T02:21:29.837Z,8.73
2022-11-15T02:22:42.151Z,8.55
2022-11-15T02:23:51.689Z,8.75
2022-11-15T02:25:01.135Z,8.93
2022-11-15T02:26:09.889Z,9.10
2022-11-15T02:26:51.482Z,8.82
2022-11-15T02:28:02.087Z,8.80
2022-11-15T02:29:25.770Z,8.63
2022-11-15T02:30:25.292Z,9.35
2022-11-15T02:31:14.861Z,8.55
2022-11-15T02:32:38.285Z,8.65
2022-11-15T02:33:25.661Z,8.13
2022-11-15T02:34:27.285Z,8.27
2022-11-15T02:35:30.789Z,9.75
2022-11-15T02:36:36.789Z,10.18
2022-11-15T02:37:27.537Z,9.60
2022-11-15T02:38:22.450Z,9.02
2022-11-15T02:39:08.595Z,9.70
2022-11-15T02:40:09.133Z,9.40
2022-11-15T02:40:54.958Z,8.70
2022-11-15T02:42:28.407Z,9.02
2022-11-15T02:43:32.121Z,9.48
2022-11-15T02:44:37.803Z,8.88
2022-11-15T02:45:28.078Z,9.43
2022-11-15T02:46:19.432Z,9.40
2022-11-15T02:47:20.476Z,8.68
2022-11-15T02:48:04.884Z,8.80
2022-11-15T02:48:47.708Z,9.00
2022-11-15T02:49:32.475Z,8.98
2022-11-15T02:50:19.165Z,8.90
2022-11-15T02:51:02.313Z,8.90
2022-11-15T02:51:45.950Z,8.20
2022-11-15T02:52:27.832Z,8.80
2022-11-15T02:53:10.186Z,8.32
2022-11-15T02:53:51.820Z,8.38
2022-11-15T02:54:34.992Z,8.25
2022-11-15T02:55:34.898Z,8.30
2022-11-15T02:56:16.545Z,8.90
2022-11-15T02:57:11.501Z,8.30
2022-11-15T02:58:07.537Z,8.57
2022-11-15T02:59:05.707Z,9.52
2022-11-15T02:59:58.953Z,8.52
2022-11-15T03:00:59.972Z,8.50
2022-11-15T03:02:05.446Z,8.68
2022-11-15T03:02:52.613Z,8.10
2022-11-15T03:04:10.478Z,8.55
2022-11-15T03:05:39.928Z,8.35
2022-11-15T03:06:29.037Z,8.35
2022-11-15T03:07:36.243Z,7.95
2022-11-15T03:08:30.078Z,8.85
2022-11-15T03:09:41.327Z,9.55
2022-11-15T03:11:05.330Z,8.35
2022-11-15T03:11:54.367Z,8.13
2022-11-15T03:12:51.675Z,7.55
2022-11-15T03:13:51.649Z,7.95
2022-11-15T03:14:58.543Z,8.70
2022-11-15T03:15:51.115Z,8.43
2022-11-15T03:16:41.121Z,8.30
2022-11-15T03:17:41.981Z,8.02
2022-11-15T03:18:34.813Z,8.40
2022-11-15T03:19:41.485Z,8.07
2022-11-15T03:20:26.013Z,8.93
2022-11-15T03:21:10.847Z,8.73
2022-11-15T03:21:56.225Z,8.25
2022-11-15T03:22:41.561Z,8.50
2022-11-15T03:23:23.671Z,8.55
2022-11-15T03:24:08.192Z,8.05
2022-11-15T03:24:55.275Z,8.75
2022-11-15T03:25:43.870Z,8.13
2022-11-15T03:26:26.673Z,8.40
2022-11-15T03:27:11.258Z,8.27
2022-11-15T03:27:56.732Z,8.32
2022-11-15T03:28:47.219Z,8.20
2022-11-15T03:29:35.031Z,8.63
2022-11-15T03:30:17.936Z,8.77
2022-11-15T03:31:02.161Z,8.20
2022-11-15T03:31:50.826Z,8.68
2022-11-15T03:32:37.864Z,8.82
2022-11-15T03:33:22.182Z,8.60
2022-11-15T03:34:07.884Z,8.55
2022-11-15T03:34:54.350Z,8.25
2022-11-15T03:35:41.208Z,8.32
2022-11-15T03:36:25.841Z,8.68
2022-11-15T03:37:09.412Z,8.10
2022-11-15T03:38:23.051Z,8.32
2022-11-15T03:39:08.644Z,9.73
2022-11-15T03:39:50.421Z,8.40
2022-11-15T03:40:48.585Z,8.85
2022-11-15T03:41:50.017Z,8.63
2022-11-15T03:42:39.524Z,8.57
2022-11-15T03:43:39.482Z,8.90
2022-11-15T03:44:29.998Z,8.10
2022-11-15T03:45:24.248Z,8.43
2022-11-15T03:46:14.148Z,7.82
2022-11-15T03:47:21.184Z,8.07
2022-11-15T03:48:21.451Z,8.43
2022-11-15T03:49:11.310Z,7.85
2022-11-15T03:49:59.084Z,7.68
2022-11-15T03:50:42.546Z,7.60
2022-11-15T03:51:24.313Z,7.05
2022-11-15T03:52:06.654Z,7.25
2022-11-15T03:52:50.330Z,7.60
2022-11-15T03:53:33.002Z,8.00
2022-11-15T03:54:15.034Z,8.00
2022-11-15T03:54:57.868Z,7.80
2022-11-15T03:55:39.512Z,7.28
2022-11-15T03:56:21.192Z,7.50
2022-11-15T03:57:02.896Z,7.40
2022-11-15T03:57:45.090Z,6.97
2022-11-15T03:58:26.750Z,6.75
2022-11-15T03:59:08.448Z,7.10
2022-11-15T03:59:50.108Z,6.57
2022-11-15T04:00:31.888Z,7.35
2022-11-15T04:01:13.575Z,7.80
2022-11-15T04:01:55.218Z,7.50
2022-11-15T04:02:36.852Z,7.75
2022-11-15T04:03:18.538Z,7.20
2022-11-15T04:04:00.181Z,7.10
2022-11-15T04:04:41.906Z,7.47
2022-11-15T04:05:23.557Z,7.93
2022-11-15T04:06:05.448Z,7.60
2022-11-15T04:06:47.176Z,7.65
2022-11-15T04:07:28.967Z,6.57
2022-11-15T04:08:10.981Z,7.05
2022-11-15T04:08:52.651Z,7.80
2022-11-15T04:09:34.401Z,7.30
2022-11-15T04:10:16.462Z,7.40
2022-11-15T04:10:58.969Z,6.63
2022-11-15T04:11:40.700Z,6.70
2022-11-15T04:12:42.613Z,7.00
2022-11-15T04:13:24.274Z,6.93
2022-11-15T04:14:05.926Z,7.15
2022-11-15T04:15:07.551Z,7.25
2022-11-15T04:15:49.173Z,6.80
2022-11-15T04:16:30.920Z,7.45
2022-11-15T04:17:12.573Z,7.30
2022-11-15T04:17:56.385Z,7.30
2022-11-15T04:18:38.019Z,6.97
2022-11-15T04:19:58.180Z,6.65
2022-11-15T04:20:58.461Z,7.05
2022-11-15T04:21:58.532Z,6.80
2022-11-15T04:23:09.387Z,7.35
2022-11-15T04:23:54.017Z,6.93
2022-11-15T04:24:35.661Z,7.13
2022-11-15T04:25:22.007Z,6.75
2022-11-15T04:26:15.473Z,6.70
2022-11-15T04:26:57.116Z,6.97
2022-11-15T04:27:38.758Z,7.35
2022-11-15T04:28:20.493Z,6.85
2022-11-15T04:29:20.805Z,6.70
2022-11-15T04:30:02.533Z,6.60
2022-11-15T04:30:44.206Z,6.97
2022-11-15T04:31:25.918Z,7.10
2022-11-15T04:32:08.151Z,7.10
2022-11-15T04:32:49.808Z,7.50
2022-11-15T04:33:31.611Z,8.25
2022-11-15T04:34:13.419Z,7.63
2022-11-15T04:34:55.072Z,7.78
2022-11-15T04:35:36.714Z,7.80
2022-11-15T04:36:36.844Z,7.80
2022-11-15T04:37:18.491Z,7.43
2022-11-15T04:38:00.596Z,6.90
2022-11-15T04:38:42.235Z,7.03
2022-11-15T04:39:23.882Z,7.20
2022-11-15T04:40:06.123Z,7.30
2022-11-15T04:40:47.801Z,7.30
2022-11-15T04:41:30.095Z,6.90
2022-11-15T04:42:11.856Z,7.00
2022-11-15T04:42:53.917Z,7.50
2022-11-15T04:43:35.768Z,7.65
2022-11-15T04:44:17.818Z,7.40
2022-11-15T04:44:59.461Z,7.00
2022-11-15T04:45:41.096Z,6.78
2022-11-15T04:46:24.546Z,7.15
2022-11-15T04:47:06.818Z,8.00
2022-11-15T04:47:48.549Z,8.25
2022-11-15T04:48:30.191Z,7.85
2022-11-15T04:49:11.846Z,7.40
2022-11-15T04:49:53.493Z,7.20
2022-11-15T04:50:35.129Z,6.63
2022-11-15T04:51:17.189Z,6.90
2022-11-15T04:51:58.887Z,7.25
2022-11-15T04:52:50.908Z,8.15
2022-11-15T04:53:32.909Z,7.53
2022-11-15T04:54:14.907Z,6.80
2022-11-15T04:54:56.550Z,7.10
2022-11-15T04:55:38.175Z,7.18
2022-11-15T04:56:19.942Z,7.15
2022-11-15T04:57:01.616Z,7.28
2022-11-15T04:57:43.285Z,7.18
2022-11-15T04:58:24.940Z,7.85
2022-11-15T04:59:06.748Z,7.40
2022-11-15T04:59:48.405Z,7.13
2022-11-15T05:00:31.029Z,7.20
2022-11-15T05:01:15.785Z,7.75
2022-11-15T05:01:57.516Z,7.80
2022-11-15T05:02:57.519Z,7.25
2022-11-15T05:03:58.080Z,7.40
2022-11-15T05:04:40.090Z,7.50
2022-11-15T05:05:22.133Z,8.05
2022-11-15T05:06:03.867Z,7.53
2022-11-15T05:06:46.140Z,7.28
2022-11-15T05:07:27.864Z,7.80
2022-11-15T05:08:09.612Z,7.90
2022-11-15T05:08:51.574Z,8.00
2022-11-15T05:09:33.254Z,7.10
2022-11-15T05:10:14.891Z,7.03
2022-11-15T05:10:56.598Z,7.38
2022-11-15T05:11:38.321Z,6.93
2022-11-15T05:12:19.970Z,8.15
2022-11-15T05:13:01.625Z,7.97
2022-11-15T05:13:43.334Z,6.72
2022-11-15T05:14:25.054Z,7.38
2022-11-15T05:15:07.289Z,7.15
2022-11-15T05:15:48.976Z,6.97
2022-11-15T05:16:30.679Z,6.97
2022-11-15T05:17:12.334Z,6.70
2022-11-15T05:18:00.100Z,7.15
2022-11-15T05:18:42.304Z,7.03
2022-11-15T05:19:24.539Z,6.80
2022-11-15T05:20:06.811Z,6.50
2022-11-15T05:20:48.500Z,6.90
2022-11-15T05:21:30.290Z,7.90
2022-11-15T05:22:12.027Z,8.02
2022-11-15T05:22:56.224Z,6.72
2022-11-15T05:23:38.902Z,7.32
2022-11-15T05:24:20.559Z,6.93
2022-11-15T05:25:02.213Z,6.95
2022-11-15T05:25:43.868Z,7.63
2022-11-15T05:26:25.782Z,7.53
2022-11-15T05:27:07.438Z,7.00
2022-11-15T05:27:49.356Z,7.20
2022-11-15T05:28:31.593Z,6.75
2022-11-15T05:29:13.294Z,6.53
2022-11-15T05:29:54.927Z,6.10
2022-11-15T05:30:36.590Z,6.25
2022-11-15T05:31:18.337Z,6.40
2022-11-15T05:32:00.511Z,6.20
2022-11-15T05:32:42.265Z,6.50
2022-11-15T05:33:24.931Z,6.40
2022-11-15T05:34:07.060Z,6.10
2022-11-15T05:34:48.769Z,5.90
2022-11-15T05:35:39.655Z,6.47
2022-11-15T05:36:41.751Z,6.13
2022-11-15T05:37:23.583Z,6.70
2022-11-15T05:38:05.511Z,7.00
2022-11-15T05:38:48.028Z,6.82
2022-11-15T05:39:29.722Z,6.63
2022-11-15T05:40:11.368Z,6.50
2022-11-15T05:40:53.239Z,6.22
2022-11-15T05:41:45.656Z,6.43
2022-11-15T05:42:28.415Z,6.63
2022-11-15T05:43:11.465Z,6.30
2022-11-15T05:43:53.862Z,6.63
2022-11-15T05:44:37.939Z,6.43
2022-11-15T05:45:25.451Z,6.63
2022-11-15T05:46:08.452Z,6.43
2022-11-15T05:46:54.467Z,6.75
2022-11-15T05:47:38.363Z,6.60
2022-11-15T05:48:20.710Z,6.15
2022-11-15T05:49:02.571Z,6.43
2022-11-15T05:49:46.237Z,6.53
2022-11-15T05:50:28.574Z,6.78
2022-11-15T05:51:10.417Z,6.47
2022-11-15T05:51:54.162Z,6.90
2022-11-15T05:52:38.249Z,6.65
2022-11-15T05:53:22.092Z,6.60
2022-11-15T05:54:04.171Z,6.07
2022-11-15T05:54:46.184Z,5.90
2022-11-15T05:55:27.874Z,6.40
2022-11-15T05:56:10.419Z,6.70
2022-11-15T05:56:52.505Z,6.20
2022-11-15T05:57:34.257Z,5.57
2022-11-15T05:58:16.348Z,5.80
2022-11-15T05:58:59.900Z,6.35
2022-11-15T05:59:44.350Z,6.70
2022-11-15T06:00:26.065Z,6.80
2022-11-15T06:01:07.860Z,6.70
2022-11-15T06:01:50.330Z,7.32
2022-11-15T06:02:32.097Z,6.82
2022-11-15T06:03:15.134Z,6.20
2022-11-15T06:03:56.825Z,6.57
2022-11-15T06:04:38.519Z,6.20
2022-11-15T06:05:20.178Z,6.50
2022-11-15T06:06:01.911Z,6.10
2022-11-15T06:06:43.935Z,5.60
2022-11-15T06:07:25.741Z,5.60
2022-11-15T06:08:07.568Z,5.60
2022-11-15T06:08:49.300Z,5.80
2022-11-15T06:09:30.943Z,6.38
2022-11-15T06:10:12.707Z,5.72
2022-11-15T06:10:54.369Z,6.03
2022-11-15T06:11:36.041Z,5.30
2022-11-15T06:12:17.747Z,5.43
2022-11-15T06:13:00.368Z,5.80
2022-11-15T06:13:42.038Z,5.40
2022-11-15T06:14:23.738Z,5.03
2022-11-15T06:15:05.849Z,6.00
2022-11-15T06:15:47.570Z,5.68
2022-11-15T06:16:29.324Z,5.00
2022-11-15T06:17:11.579Z,5.10
2022-11-15T06:17:53.495Z,5.00
2022-11-15T06:18:36.091Z,5.15
2022-11-15T06:19:17.910Z,4.80
2022-11-15T06:19:59.622Z,4.75
2022-11-15T06:20:41.348Z,5.95
2022-11-15T06:21:23.322Z,5.90
2022-11-15T06:22:05.275Z,5.60
2022-11-15T06:22:46.963Z,5.07
2022-11-15T06:23:32.309Z,5.45
2022-11-15T06:24:14.201Z,5.35
2022-11-15T06:24:55.878Z,4.93
2022-11-15T06:25:37.552Z,4.70
2022-11-15T06:26:19.236Z,5.20
2022-11-15T06:27:01.023Z,5.70
2022-11-15T06:27:42.698Z,5.70
2022-11-15T06:28:24.391Z,5.30
2022-11-15T06:29:06.262Z,5.20
2022-11-15T06:29:47.907Z,5.60
2022-11-15T06:30:29.617Z,5.70
2022-11-15T06:31:12.771Z,5.53
2022-11-15T06:31:54.477Z,5.85
2022-11-15T06:32:36.209Z,5.22
2022-11-15T06:33:17.872Z,5.20
2022-11-15T06:33:59.538Z,5.57
2022-11-15T06:34:44.242Z,5.50
2022-11-15T06:35:25.892Z,5.53
2022-11-15T06:36:16.107Z,5.43
2022-11-15T06:36:59.090Z,5.45
2022-11-15T06:37:41.297Z,5.75
2022-11-15T06:38:22.938Z,5.90
2022-11-15T06:39:05.499Z,5.65
2022-11-15T06:39:47.171Z,5.57
2022-11-15T06:40:28.841Z,5.03
2022-11-15T06:41:12.370Z,5.10
2022-11-15T06:41:54.026Z,5.40
2022-11-15T06:42:35.704Z,5.70
2022-11-15T06:43:17.347Z,5.20
2022-11-15T06:43:59.015Z,5.38
2022-11-15T06:44:40.689Z,5.38
2022-11-15T06:45:22.364Z,5.35
2022-11-15T06:46:05.403Z,4.43
2022-11-15T06:46:47.040Z,5.20
2022-11-15T06:47:28.837Z,4.88
2022-11-15T06:48:10.519Z,5.20
2022-11-15T06:48:53.252Z,5.25
2022-11-15T06:49:34.956Z,4.53
2022-11-15T06:50:16.676Z,4.45
2022-11-15T06:51:00.511Z,4.88
2022-11-15T06:51:42.176Z,4.80
2022-11-15T06:52:23.923Z,4.50
2022-11-15T06:53:05.561Z,4.18
2022-11-15T06:53:47.376Z,3.70
2022-11-15T06:54:29.017Z,4.25
2022-11-15T06:55:10.736Z,4.85
2022-11-15T06:55:55.532Z,4.15
2022-11-15T06:56:37.391Z,3.42
2022-11-15T06:57:19.033Z,4.00
2022-11-15T06:58:00.736Z,3.78
2022-11-15T06:58:42.405Z,3.85
2022-11-15T06:59:24.054Z,3.95
2022-11-15T07:00:06.609Z,3.63
2022-11-15T07:00:48.367Z,3.80
2022-11-15T07:01:30.124Z,4.20
2022-11-15T07:02:14.957Z,4.20
2022-11-15T07:03:00.173Z,4.10
2022-11-15T07:03:43.271Z,4.30
2022-11-15T07:04:24.933Z,4.50
2022-11-15T07:05:07.037Z,4.15
2022-11-15T07:05:54.167Z,4.28
2022-11-15T07:06:35.849Z,4.00
2022-11-15T07:07:17.661Z,4.65
2022-11-15T07:08:00.336Z,5.10
2022-11-15T07:08:42.800Z,4.80
2022-11-15T07:09:24.493Z,4.40
2022-11-15T07:10:07.169Z,5.05
2022-11-15T07:10:49.227Z,5.18
2022-11-15T07:11:30.879Z,5.35
2022-11-15T07:12:12.543Z,5.10
2022-11-15T07:12:55.665Z,5.03
2022-11-15T07:13:38.169Z,4.85
2022-11-15T07:14:19.837Z,5.00
2022-11-15T07:15:01.558Z,5.45
2022-11-15T07:15:43.262Z,5.65
2022-11-15T07:16:24.922Z,5.90
2022-11-15T07:17:06.749Z,5.38
2022-11-15T07:17:48.474Z,5.30
2022-11-15T07:18:30.833Z,6.10
2022-11-15T07:19:12.541Z,6.45
2022-11-15T07:19:54.202Z,5.70
2022-11-15T07:20:36.176Z,5.70
2022-11-15T07:21:17.842Z,5.30
2022-11-15T07:21:59.453Z,5.60
2022-11-15T07:22:41.583Z,5.45
2022-11-15T07:23:23.234Z,5.20
2022-11-15T07:24:05.285Z,5.10
2022-11-15T07:24:46.929Z,5.07
2022-11-15T07:25:29.025Z,5.47
2022-11-15T07:26:10.816Z,5.70
2022-11-15T07:26:52.556Z,5.70
2022-11-15T07:27:34.717Z,5.20
2022-11-15T07:28:16.381Z,5.40
2022-11-15T07:28:58.176Z,5.13
2022-11-15T07:29:39.901Z,4.90
2022-11-15T07:30:21.541Z,4.38
2022-11-15T07:31:08.704Z,4.70
2022-11-15T07:31:51.474Z,5.07
2022-11-15T07:32:33.116Z,5.10
2022-11-15T07:33:14.739Z,5.20
2022-11-15T07:33:56.389Z,4.65
2022-11-15T07:34:38.016Z,4.15
2022-11-15T07:35:19.723Z,4.72
2022-11-15T07:36:02.880Z,5.10
2022-11-15T07:36:44.535Z,5.32
2022-11-15T07:37:26.253Z,4.65
2022-11-15T07:38:07.953Z,4.90
2022-11-15T07:38:49.716Z,4.78
2022-11-15T07:39:31.378Z,4.10
2022-11-15T07:40:13.440Z,4.55
2022-11-15T07:41:03.003Z,5.20
2022-11-15T07:41:44.654Z,4.50
2022-11-15T07:42:44.753Z,4.75
2022-11-15T07:43:28.858Z,5.05
2022-11-15T07:44:10.727Z,5.25
2022-11-15T07:44:52.384Z,4.85
2022-11-15T07:45:37.069Z,5.10
2022-11-15T07:46:18.767Z,4.90
2022-11-15T07:47:00.426Z,4.60
2022-11-15T07:47:45.697Z,4.30
2022-11-15T07:48:32.157Z,4.30
2022-11-15T07:49:24.192Z,4.30
2022-11-15T07:50:06.187Z,3.95
2022-11-15T07:50:48.113Z,3.63
2022-11-15T07:51:29.975Z,4.07
2022-11-15T07:52:11.631Z,3.67
2022-11-15T07:52:57.757Z,3.42
2022-11-15T07:53:39.430Z,3.10
2022-11-15T07:54:21.045Z,3.13
2022-11-15T07:55:02.774Z,3.63
2022-11-15T07:55:44.424Z,3.20
2022-11-15T07:56:26.130Z,2.70
2022-11-15T07:57:10.083Z,2.95
2022-11-15T07:57:52.023Z,2.70
2022-11-15T07:58:33.705Z,2.80
2022-11-15T07:59:15.360Z,2.53
2022-11-15T07:59:57.018Z,2.78
2022-11-15T08:00:39.110Z,2.50
2022-11-15T08:01:21.026Z,3.00
2022-11-15T08:02:03.453Z,2.95
2022-11-15T08:02:45.514Z,2.90
2022-11-15T08:03:27.291Z,2.95
2022-11-15T08:04:10.903Z,3.20
2022-11-15T08:04:52.546Z,3.10
2022-11-15T08:05:35.194Z,2.70
2022-11-15T08:06:16.855Z,2.30
2022-11-15T08:06:59.756Z,2.60
2022-11-15T08:07:41.494Z,2.80
2022-11-15T08:08:23.218Z,2.83
2022-11-15T08:09:05.020Z,3.00
2022-11-15T08:09:46.717Z,3.10
2022-11-15T08:10:28.999Z,2.33
2022-11-15T08:11:10.704Z,2.70
2022-11-15T08:11:52.408Z,3.00
2022-11-15T08:12:34.210Z,2.80
2022-11-15T08:13:16.234Z,2.70
2022-11-15T08:13:58.048Z,2.30
2022-11-15T08:14:39.708Z,2.38
2022-11-15T08:15:21.388Z,2.53
2022-11-15T08:16:05.690Z,2.60
2022-11-15T08:16:47.904Z,2.80
2022-11-15T08:17:33.641Z,2.85
2022-11-15T08:18:17.107Z,2.90
2022-11-15T08:18:58.901Z,2.72
2022-11-15T08:19:40.580Z,2.90
2022-11-15T08:20:22.226Z,3.20
2022-11-15T08:21:04.619Z,2.80
2022-11-15T08:21:46.273Z,2.80
2022-11-15T08:22:28.119Z,2.35
2022-11-15T08:23:12.771Z,2.40
2022-11-15T08:23:54.419Z,2.55
2022-11-15T08:24:36.105Z,2.78
2022-11-15T08:25:17.792Z,2.90
2022-11-15T08:26:04.375Z,3.10
2022-11-15T08:26:46.169Z,2.50
2022-11-15T08:27:27.955Z,2.63
2022-11-15T08:28:12.003Z,3.20
2022-11-15T08:28:53.683Z,3.28
2022-11-15T08:29:35.453Z,3.08
2022-11-15T08:30:17.214Z,3.20
2022-11-15T08:30:58.862Z,2.95
2022-11-15T08:31:40.809Z,2.75
2022-11-15T08:32:22.464Z,3.38
2022-11-15T08:33:04.586Z,3.50
2022-11-15T08:33:46.499Z,3.10
2022-11-15T08:34:28.154Z,3.50
2022-11-15T08:35:09.881Z,3.30
2022-11-15T08:35:51.538Z,3.20
2022-11-15T08:36:41.759Z,3.40
2022-11-15T08:37:27.485Z,4.00
2022-11-15T08:38:09.151Z,3.83
2022-11-15T08:38:50.856Z,3.80
2022-11-15T08:39:32.542Z,3.50
2022-11-15T08:40:14.922Z,3.60
2022-11-15T08:41:03.434Z,3.95
2022-11-15T08:41:45.599Z,3.90
2022-11-15T08:42:27.306Z,3.50
2022-11-15T08:43:09.056Z,3.80
2022-11-15T08:43:50.716Z,3.90
2022-11-15T08:44:32.407Z,3.70
2022-11-15T08:45:14.308Z,3.60
2022-11-15T08:45:59.651Z,3.00
2022-11-15T08:46:41.288Z,2.85
2022-11-15T08:47:23.126Z,3.17
2022-11-15T08:48:05.215Z,3.30
2022-11-15T08:48:46.889Z,3.30
2022-11-15T08:49:28.608Z,3.15
2022-11-15T08:50:10.712Z,3.10
2022-11-15T08:50:58.344Z,3.15
2022-11-15T08:51:40.175Z,3.40
2022-11-15T08:52:22.291Z,3.50
2022-11-15T08:53:09.262Z,3.30
2022-11-15T08:53:50.973Z,2.90
2022-11-15T08:54:32.724Z,2.97
2022-11-15T08:55:16.900Z,3.38
2022-11-15T08:55:59.253Z,3.00
2022-11-15T08:56:41.562Z,2.90
2022-11-15T08:57:23.236Z,2.70
2022-11-15T08:58:05.140Z,2.80
2022-11-15T08:58:47.795Z,3.10
2022-11-15T08:59:29.521Z,2.80
2022-11-15T09:00:12.791Z,2.55
2022-11-15T09:00:54.628Z,2.55
2022-11-15T09:01:36.487Z,2.47
2022-11-15T09:02:18.243Z,3.13
2022-11-15T09:03:00.290Z,2.50
2022-11-15T09:03:42.642Z,2.60
2022-11-15T09:04:24.390Z,2.20
2022-11-15T09:05:07.129Z,2.40
2022-11-15T09:05:48.866Z,2.40
2022-11-15T09:06:31.296Z,2.60
2022-11-15T09:07:14.220Z,2.53
2022-11-15T09:07:56.106Z,2.20
2022-11-15T09:08:47.614Z,1.92
2022-11-15T09:09:34.077Z,2.25
2022-11-15T09:10:16.216Z,2.30
2022-11-15T09:10:57.976Z,2.20
2022-11-15T09:11:39.676Z,2.30
2022-11-15T09:12:21.345Z,2.28
2022-11-15T09:13:03.283Z,2.30
2022-11-15T09:13:44.993Z,2.70
2022-11-15T09:14:26.943Z,2.05
2022-11-15T09:15:09.390Z,2.15
2022-11-15T09:15:51.087Z,2.20
2022-11-15T09:16:32.884Z,2.17
2022-11-15T09:17:14.546Z,2.30
2022-11-15T09:17:59.539Z,2.30
2022-11-15T09:18:41.228Z,2.50
2022-11-15T09:19:23.031Z,2.25
2022-11-15T09:20:05.549Z,2.05
2022-11-15T09:20:47.223Z,2.13
2022-11-15T09:21:30.153Z,1.90
2022-11-15T09:22:11.807Z,2.10
2022-11-15T09:22:53.444Z,2.13
2022-11-15T09:23:35.185Z,2.20
2022-11-15T09:24:18.197Z,1.90
2022-11-15T09:24:59.840Z,2.10
2022-11-15T09:25:41.490Z,2.10
2022-11-15T09:26:23.162Z,2.10
2022-11-15T09:27:04.870Z,1.63
2022-11-15T09:27:46.547Z,2.17
2022-11-15T09:28:29.012Z,2.40
2022-11-15T09:29:10.888Z,2.35
2022-11-15T09:29:52.599Z,2.08
2022-11-15T09:30:34.371Z,1.90
2022-11-15T09:31:21.011Z,2.35
2022-11-15T09:32:03.885Z,2.22
2022-11-15T09:32:45.568Z,2.10
2022-11-15T09:33:28.253Z,2.60
2022-11-15T09:34:09.978Z,2.33
2022-11-15T09:34:51.633Z,1.70
2022-11-15T09:35:33.316Z,1.70
2022-11-15T09:36:15.008Z,1.80
2022-11-15T09:36:57.080Z,2.05
2022-11-15T09:37:38.839Z,2.05
2022-11-15T09:38:20.929Z,2.30
2022-11-15T09:39:02.601Z,2.10
2022-11-15T09:39:44.305Z,1.80
2022-11-15T09:40:27.186Z,1.70
2022-11-15T09:41:22.819Z,1.70
2022-11-15T09:42:44.699Z,2.10
2022-11-15T09:43:38.245Z,1.83
2022-11-15T09:44:42.997Z,1.90
2022-11-15T09:45:46.594Z,1.90
2022-11-15T09:46:43.425Z,2.00
2022-11-15T09:48:18.481Z,1.80
2022-11-15T09:49:01.895Z,2.30
2022-11-15T09:49:43.663Z,2.10
2022-11-15T09:50:51.658Z,2.10
2022-11-15T09:51:47.707Z,1.90
2022-11-15T09:52:29.629Z,1.60
2022-11-15T09:54:56.677Z,2.20
2022-11-15T09:55:04.055Z,1.70
2022-11-15T09:55:51.571Z,2.15
2022-11-15T09:56:37.367Z,2.10